Time;durP1;ratioP1;P1;durP2;ratioP2;P2;SDS_P1;SDS_P2;PMS_P1;PMS_P2;Temp;Humidity;BMP_temperature;BMP_pressure;BME280_temperature;BME280_humidity;BME280_pressure;Samples;Min_cycle;Max_cycle;Signal;HPM_P1;HPM_P2
2023/09/12 00:00:54;;;;;;;43.83;22.77;;;;;;;25.06;51.53;100913.16;4932875;28;20058;-78
2023/09/12 00:03:24;;;;;;;47.60;23.27;;;;;;;25.24;51.56;100972.13;4922530;28;20462;-78
2023/09/12 00:05:53;;;;;;;32.60;24.40;;;;;;;25.22;53.57;100957.97;4919792;28;20059;-79
2023/09/12 00:08:24;;;;;;;29.95;22.60;;;;;;;25.35;53.57;100976.84;4920230;28;20110;-77
2023/09/12 00:11:10;;;;;;;32.10;23.15;;;;;;;25.32;52.20;100963.72;4911334;29;20043;-78
2023/09/12 00:13:41;;;;;;;35.33;22.60;;;;;;;25.34;51.93;100956.19;4908431;29;20050;-78
2023/09/12 00:16:10;;;;;;;36.97;21.67;;;;;;;25.09;51.32;100925.47;4908342;29;20057;-79
2023/09/12 00:18:39;;;;;;;34.13;20.48;;;;;;;25.28;51.28;100970.66;4920890;28;20334;-79
2023/09/12 00:21:07;;;;;;;32.80;22.05;;;;;;;25.19;51.24;100961.13;4925956;28;20062;-80
2023/09/12 00:23:34;;;;;;;36.40;21.98;;;;;;;25.08;51.55;100962.66;4927048;28;20053;-78
2023/09/12 00:26:07;;;;;;;29.52;21.13;;;;;;;24.92;51.91;100961.34;4928966;28;20113;-79
2023/09/12 00:28:34;;;;;;;29.00;20.42;;;;;;;24.80;51.71;100957.69;4926413;28;20383;-77
2023/09/12 00:31:02;;;;;;;35.42;21.60;;;;;;;24.57;51.71;100933.88;4935166;28;20042;-80
2023/09/12 00:33:29;;;;;;;27.65;20.83;;;;;;;24.71;51.77;100950.88;4934113;28;20400;-78
2023/09/12 00:35:56;;;;;;;30.90;21.85;;;;;;;24.77;51.48;100966.28;4924936;28;20074;-78
2023/09/12 00:38:23;;;;;;;29.05;19.83;;;;;;;24.72;51.58;100961.50;4932549;28;20043;-77
2023/09/12 00:40:50;;;;;;;25.70;20.35;;;;;;;24.52;51.46;100937.25;4935384;28;20344;-79
2023/09/12 00:43:17;;;;;;;25.58;19.45;;;;;;;24.64;51.42;100961.81;4940759;28;20220;-79
2023/09/12 00:45:45;;;;;;;31.55;18.70;;;;;;;24.62;52.51;100936.75;4929779;28;20521;-78
2023/09/12 00:48:14;;;;;;;24.88;17.70;;;;;;;24.85;50.31;100963.28;4921121;28;20126;-80
2023/09/12 00:50:43;;;;;;;28.77;20.67;;;;;;;24.86;51.38;100958.72;4931210;28;20051;-79
2023/09/12 00:53:11;;;;;;;27.40;16.98;;;;;;;24.87;49.13;100958.47;4939666;28;20051;-80
2023/09/12 00:55:47;;;;;;;25.42;17.55;;;;;;;24.80;48.49;100943.28;4910576;28;20559;-80
2023/09/12 00:58:23;;;;;;;22.05;16.77;;;;;;;24.68;48.58;100921.47;4901659;28;20313;-77
2023/09/12 01:00:50;;;;;;;22.13;15.75;;;;;;;24.72;48.35;100936.25;4919530;28;20081;-78
2023/09/12 01:03:20;;;;;;;22.38;16.27;;;;;;;24.21;47.93;100864.81;4947372;28;20308;-78
2023/09/12 01:05:47;;;;;;;24.55;16.48;;;;;;;24.31;47.99;100891.47;4947892;28;20097;-78
2023/09/12 01:08:19;;;;;;;21.25;15.15;;;;;;;24.72;47.90;100957.97;4956206;28;20596;-80
2023/09/12 01:10:49;;;;;;;25.00;16.88;;;;;;;24.49;47.93;100926.00;4942047;28;20048;-79
2023/09/12 01:13:19;;;;;;;24.03;16.40;;;;;;;24.56;48.29;100950.38;4950438;28;20042;-79
2023/09/12 01:15:46;;;;;;;24.67;15.48;;;;;;;24.17;48.12;100900.75;4958413;28;20114;-78
2023/09/12 01:18:12;;;;;;;24.73;16.02;;;;;;;24.52;48.04;100955.44;4941358;28;20046;-79
2023/09/12 01:20:52;;;;;;;20.00;15.25;;;;;;;24.47;48.21;100938.97;4949631;28;20046;-77
2023/09/12 01:23:58;;;;;;;21.90;15.77;;;;;;;24.42;48.05;100947.75;4936018;28;20681;-80
2023/09/12 01:26:42;;;;;;;;;;;;;;;24.40;47.80;100954.44;4916663;28;20373;-77
2023/09/12 01:29:13;;;;;;;22.52;14.68;;;;;;;24.43;48.19;100960.25;4907567;28;20321;-79
2023/09/12 01:31:43;;;;;;;;;;;;;;;24.39;48.29;100959.00;4948754;28;20066;-78
2023/09/12 01:34:11;;;;;;;18.60;14.77;;;;;;;24.38;48.28;100942.97;4953741;28;19928;-77
2023/09/12 01:36:38;;;;;;;20.50;15.30;;;;;;;24.25;47.83;100925.72;4941521;28;20087;-77
2023/09/12 01:39:06;;;;;;;20.50;16.33;;;;;;;24.20;47.27;100913.84;4914671;28;20120;-79
2023/09/12 01:41:40;;;;;;;17.60;14.05;;;;;;;24.30;47.43;100933.22;4923068;28;20046;-79
2023/09/12 01:44:11;;;;;;;19.25;14.73;;;;;;;24.37;47.43;100944.84;4927870;28;20470;-78
2023/09/12 01:46:39;;;;;;;;;;;;;;;24.31;47.13;100962.81;4949249;28;20631;-79
2023/09/12 01:49:17;;;;;;;20.23;14.93;;;;;;;24.29;47.30;100948.63;4921852;28;19926;-79
2023/09/12 01:51:44;;;;;;;20.17;14.75;;;;;;;24.13;49.21;100908.50;4925031;28;20131;-79
2023/09/12 01:54:13;;;;;;;23.60;15.05;;;;;;;24.48;48.26;100963.16;4918559;28;20401;-78
2023/09/12 01:56:48;;;;;;;25.75;15.27;;;;;;;24.33;47.52;100932.78;4914111;28;20228;-80
2023/09/12 01:59:22;;;;;;;20.75;15.35;;;;;;;24.58;47.28;100956.41;4922248;28;20134;-78
2023/09/12 02:01:51;;;;;;;19.63;14.40;;;;;;;24.49;47.08;100950.41;4939780;28;20068;-77
2023/09/12 02:04:18;;;;;;;22.58;15.25;;;;;;;24.33;46.84;100915.66;4976873;28;20337;-80
2023/09/12 02:06:45;;;;;;;22.80;14.60;;;;;;;24.48;46.66;100957.72;4956451;28;20323;-79
2023/09/12 02:09:14;;;;;;;27.60;14.57;;;;;;;24.39;46.91;100959.00;4974001;28;20513;-80
2023/09/12 02:11:43;;;;;;;17.05;13.85;;;;;;;24.03;47.18;100917.13;4957005;28;20046;-81
2023/09/12 02:14:15;;;;;;;20.17;14.00;;;;;;;24.17;47.16;100949.56;4951812;28;20493;-80
2023/09/12 02:16:42;;;;;;;24.23;15.55;;;;;;;24.02;48.24;100926.28;4951361;28;20046;-80
2023/09/12 02:19:10;;;;;;;21.63;15.07;;;;;;;24.22;47.35;100957.88;4954576;28;20082;-79
2023/09/12 02:21:40;;;;;;;22.08;14.85;;;;;;;23.95;47.57;100916.53;4954001;28;20277;-80
2023/09/12 02:24:07;;;;;;;23.70;15.30;;;;;;;24.29;48.55;100966.81;4955925;28;20382;-79
2023/09/12 02:26:38;;;;;;;19.65;13.57;;;;;;;24.04;47.86;100917.94;4954783;28;20046;-80
2023/09/12 02:29:09;;;;;;;19.73;13.68;;;;;;;24.37;47.56;100968.41;4965012;28;20097;-79
2023/09/12 02:31:36;;;;;;;20.77;14.55;;;;;;;24.19;47.77;100937.44;4952110;28;20141;-81
2023/09/12 02:34:03;;;;;;;21.45;15.90;;;;;;;24.40;48.33;100971.53;4958812;28;20124;-80
2023/09/12 02:36:31;;;;;;;23.50;15.18;;;;;;;24.40;47.74;100971.53;4958614;28;20049;-77
2023/09/12 02:39:03;;;;;;;25.65;16.10;;;;;;;24.25;47.55;100954.75;4963654;28;20046;-80
2023/09/12 02:41:34;;;;;;;19.17;13.57;;;;;;;24.32;47.36;100969.06;4957730;28;20138;-79
2023/09/12 02:44:05;;;;;;;19.08;13.85;;;;;;;24.20;47.06;100940.97;4958050;28;20057;-80
2023/09/12 02:46:32;;;;;;;17.73;13.80;;;;;;;24.34;46.65;100972.41;4966216;28;20050;-81
2023/09/12 02:49:01;;;;;;;17.30;13.73;;;;;;;24.37;46.63;100972.00;4955180;28;20069;-80
2023/09/12 02:51:28;;;;;;;19.45;14.52;;;;;;;24.34;46.67;100972.41;4956613;28;20046;-79
2023/09/12 02:53:55;;;;;;;19.58;14.10;;;;;;;24.33;46.53;100968.03;4957969;28;20295;-79
2023/09/12 02:56:22;;;;;;;18.55;14.38;;;;;;;24.32;46.18;100969.06;4948255;28;20048;-78
2023/09/12 02:58:55;;;;;;;20.65;14.93;;;;;;;24.34;46.23;100969.69;4950465;28;20322;-80
2023/09/12 03:01:22;;;;;;;18.05;14.32;;;;;;;24.04;46.04;100917.94;4959857;28;20132;-79
2023/09/12 03:03:54;;;;;;;20.65;14.23;;;;;;;24.33;46.00;100965.31;4969469;28;20096;-78
2023/09/12 03:06:23;;;;;;;18.85;14.07;;;;;;;24.06;45.78;100932.94;4955547;28;20050;-80
2023/09/12 03:08:50;;;;;;;19.02;13.45;;;;;;;24.24;45.81;100966.63;4955940;28;20052;-79
2023/09/12 03:11:21;;;;;;;17.58;12.38;;;;;;;24.17;45.92;100968.53;4974260;28;20570;-79
2023/09/12 03:13:47;;;;;;;16.33;13.45;;;;;;;23.33;45.86;100849.25;4960866;28;20045;-77
2023/09/12 03:16:23;;;;;;;18.25;13.13;;;;;;;23.96;46.28;100959.69;4960909;28;20434;-77
2023/09/12 03:18:51;;;;;;;20.17;14.13;;;;;;;23.66;46.34;100916.00;4956559;28;20050;-79
2023/09/12 03:21:17;;;;;;;23.35;13.93;;;;;;;23.84;46.33;100935.16;4966531;28;20641;-78
2023/09/12 03:23:44;;;;;;;19.67;14.15;;;;;;;23.94;46.40;100961.78;4971913;28;20050;-79
2023/09/12 03:26:11;;;;;;;16.45;13.80;;;;;;;23.72;46.13;100920.56;4958980;28;20402;-79
2023/09/12 03:28:42;;;;;;;20.08;13.80;;;;;;;23.99;45.86;100963.84;4957756;28;20050;-79
2023/09/12 03:31:14;;;;;;;21.45;13.55;;;;;;;23.99;45.62;100964.69;4960437;28;20133;-79
2023/09/12 03:33:49;;;;;;;15.85;13.60;;;;;;;24.02;47.34;100963.41;4972925;28;20063;-79
2023/09/12 03:36:21;;;;;;;24.30;12.90;;;;;;;24.03;45.76;100955.06;4954051;28;20290;-80
2023/09/12 03:38:48;;;;;;;18.73;13.20;;;;;;;24.08;45.49;100965.28;4954467;28;20776;-79
2023/09/12 03:41:18;;;;;;;16.05;12.75;;;;;;;24.10;44.92;100961.31;4962790;28;20265;-79
2023/09/12 03:43:47;;;;;;;18.85;13.20;;;;;;;24.04;45.15;100955.91;4957429;28;20049;-79
2023/09/12 03:46:14;;;;;;;17.83;14.02;;;;;;;23.94;45.53;100939.28;4960960;28;20105;-79
2023/09/12 03:48:41;;;;;;;21.60;13.15;;;;;;;24.05;45.24;100958.38;4954064;28;20049;-80
2023/09/12 03:51:08;;;;;;;17.10;13.90;;;;;;;23.87;45.26;100933.88;4962869;28;20049;-78
2023/09/12 03:53:37;;;;;;;20.75;12.95;;;;;;;23.97;45.94;100960.53;4958693;28;20053;-76
2023/09/12 03:56:04;;;;;;;18.00;12.75;;;;;;;23.93;45.35;100957.41;4948474;28;20054;-78
2023/09/12 03:58:36;;;;;;;18.08;12.85;;;;;;;24.08;46.10;100960.69;4960549;28;20096;-78
2023/09/12 04:01:02;;;;;;;16.65;12.75;;;;;;;23.81;45.48;100913.91;4953419;28;20275;-79
2023/09/12 04:03:32;;;;;;;19.02;13.32;;;;;;;23.95;47.16;100932.78;4960881;28;20050;-77
2023/09/12 04:06:04;;;;;;;21.45;14.45;;;;;;;24.16;46.60;100961.47;4952896;28;20077;-77
2023/09/12 04:08:38;;;;;;;22.10;14.20;;;;;;;23.88;45.86;100905.72;4939633;28;20220;-80
2023/09/12 04:11:05;;;;;;;19.85;13.23;;;;;;;23.83;45.85;100894.69;4944751;28;20073;-80
2023/09/12 04:13:32;;;;;;;18.13;12.98;;;;;;;24.24;45.29;100958.50;4935026;28;20053;-81
2023/09/12 04:15:58;;;;;;;19.25;12.85;;;;;;;24.03;44.91;100938.81;4949898;28;20260;-80
2023/09/12 04:18:26;;;;;;;17.95;12.50;;;;;;;23.96;44.67;100932.59;4955236;28;20462;-79
2023/09/12 04:20:55;;;;;;;17.83;13.30;;;;;;;23.91;44.83;100934.25;4958967;28;20641;-80
2023/09/12 04:23:22;;;;;;;20.92;12.95;;;;;;;23.84;44.83;100926.19;4947992;28;20049;-78
2023/09/12 04:25:49;;;;;;;18.50;13.63;;;;;;;23.91;44.59;100954.09;4956357;28;20077;-78
2023/09/12 04:28:19;;;;;;;20.10;14.30;;;;;;;23.77;44.96;100947.06;4957360;28;20427;-80
2023/09/12 04:30:46;;;;;;;16.73;12.43;;;;;;;23.79;45.70;100950.41;4957066;28;20054;-79
2023/09/12 04:33:13;;;;;;;23.95;12.68;;;;;;;23.57;45.18;100915.44;4959282;28;20809;-78
2023/09/12 04:35:40;;;;;;;17.33;12.93;;;;;;;23.89;45.07;100967.03;4941802;28;20605;-80
2023/09/12 04:38:06;;;;;;;16.77;12.73;;;;;;;23.97;45.77;100979.50;4950530;28;20126;-80
2023/09/12 04:40:33;;;;;;;17.98;13.13;;;;;;;23.93;45.29;100970.94;4939332;28;20050;-78
2023/09/12 04:43:00;;;;;;;16.13;13.07;;;;;;;23.81;45.05;100956.41;4953805;28;20054;-78
2023/09/12 04:45:27;;;;;;;20.15;13.60;;;;;;;23.71;44.62;100945.16;4948679;28;20385;-80
2023/09/12 04:47:53;;;;;;;18.63;12.90;;;;;;;23.77;44.61;100966.03;4960541;28;20077;-79
2023/09/12 04:50:31;;;;;;;17.65;13.70;;;;;;;23.85;44.79;100980.16;4929015;28;20147;-80
2023/09/12 04:53:11;;;;;;;18.20;12.20;;;;;;;23.66;44.63;100971.03;4939509;28;20389;-79
2023/09/12 04:55:41;;;;;;;21.23;13.88;;;;;;;23.74;44.79;100989.00;4945166;28;20081;-80
2023/09/12 04:58:07;;;;;;;23.80;13.35;;;;;;;23.76;45.08;100996.88;4970900;28;20046;-80
2023/09/12 05:00:34;;;;;;;21.10;13.45;;;;;;;23.67;45.09;100983.56;4956442;28;20058;-80
2023/09/12 05:03:05;;;;;;;16.67;13.27;;;;;;;23.62;45.42;100985.25;4924177;28;20090;-79
2023/09/12 05:05:37;;;;;;;22.73;16.73;;;;;;;23.82;46.13;101012.31;4916008;28;20070;-80
2023/09/12 05:08:04;;;;;;;19.20;15.57;;;;;;;23.89;45.77;101005.00;4924433;28;20050;-79
2023/09/12 05:10:40;;;;;;;25.40;15.10;;;;;;;23.74;45.99;100980.00;4922562;28;20513;-80
2023/09/12 05:13:07;;;;;;;26.08;15.32;;;;;;;23.86;46.56;101008.97;4930385;28;20108;-79
2023/09/12 05:15:34;;;;;;;22.77;15.90;;;;;;;23.87;46.74;101009.78;4924481;28;20648;-80
2023/09/12 05:18:00;;;;;;;21.77;15.07;;;;;;;23.87;47.02;101012.50;4925437;28;20452;-81
2023/09/12 05:20:27;;;;;;;23.30;15.55;;;;;;;23.87;47.35;101023.34;4936059;28;20229;-80
2023/09/12 05:22:55;;;;;;;26.33;16.30;;;;;;;23.56;47.75;100977.97;4926664;28;20071;-79
2023/09/12 05:25:22;;;;;;;27.50;16.33;;;;;;;23.66;47.57;100998.13;4928897;28;20519;-80
2023/09/12 05:27:49;;;;;;;23.58;15.15;;;;;;;23.77;47.79;101026.50;4946783;28;20718;-80
2023/09/12 05:30:16;;;;;;;28.75;16.10;;;;;;;23.71;47.83;101034.63;4935646;28;20051;-79
2023/09/12 05:32:43;;;;;;;28.25;16.65;;;;;;;23.62;48.31;101034.03;4936426;28;20047;-80
2023/09/12 05:35:15;;;;;;;21.73;14.77;;;;;;;23.54;48.82;101029.66;4917397;28;20063;-78
2023/09/12 05:37:48;;;;;;;29.42;15.20;;;;;;;23.58;48.91;101043.63;4910773;28;20254;-79
2023/09/12 05:40:15;;;;;;;24.67;15.02;;;;;;;23.53;48.85;101041.53;4930570;28;20050;-80
2023/09/12 05:42:43;;;;;;;36.35;16.48;;;;;;;23.48;49.58;101049.47;4935304;28;20105;-79
2023/09/12 05:45:13;;;;;;;25.73;16.77;;;;;;;23.46;49.83;101046.13;4929669;28;20149;-79
2023/09/12 05:47:39;;;;;;;26.13;17.13;;;;;;;23.41;49.94;101046.75;4933940;28;20117;-80
2023/09/12 05:50:09;;;;;;;30.30;18.15;;;;;;;23.39;50.41;101031.75;4935966;28;20065;-81
2023/09/12 05:52:36;;;;;;;25.55;17.30;;;;;;;23.53;49.64;101046.13;4940337;28;20452;-80
2023/09/12 05:55:04;;;;;;;23.35;15.93;;;;;;;23.52;50.56;101050.72;4919982;28;20479;-80
2023/09/12 05:57:35;;;;;;;31.33;18.45;;;;;;;23.61;50.19;101052.16;4928360;28;20447;-79
2023/09/12 06:00:09;;;;;;;29.75;17.13;;;;;;;23.40;49.55;101011.75;4914725;28;20054;-81
2023/09/12 06:02:42;;;;;;;32.22;16.63;;;;;;;23.81;49.13;101064.84;4943905;28;20510;-79
2023/09/12 06:05:15;;;;;;;24.95;16.27;;;;;;;23.62;49.06;101040.28;4948169;28;20100;-79
2023/09/12 06:07:46;;;;;;;24.67;17.48;;;;;;;23.77;48.99;101055.50;4964691;28;20398;-79
2023/09/12 06:10:19;;;;;;;21.27;14.95;;;;;;;23.70;51.54;101051.94;4961758;28;20629;-77
2023/09/12 06:12:51;;;;;;;30.90;17.55;;;;;;;23.74;49.58;101053.19;4948514;28;20042;-80
2023/09/12 06:15:23;;;;;;;23.08;16.40;;;;;;;23.79;49.54;101059.66;4965133;28;20232;-81
2023/09/12 06:17:50;;;;;;;38.75;17.63;;;;;;;23.78;49.33;101071.53;4970795;28;20475;-78
2023/09/12 06:20:16;;;;;;;30.85;17.45;;;;;;;23.79;49.82;101066.97;4952126;28;20081;-78
2023/09/12 06:22:43;;;;;;;29.80;18.60;;;;;;;23.59;50.33;101040.72;4955677;28;20133;-79
2023/09/12 06:25:10;;;;;;;33.20;17.55;;;;;;;23.65;50.23;101042.56;4951151;28;20050;-78
2023/09/12 06:27:38;;;;;;;31.38;17.92;;;;;;;23.47;50.82;101009.84;4961937;28;20656;-79
2023/09/12 06:30:06;;;;;;;31.98;18.45;;;;;;;23.61;50.75;101041.31;4964436;28;20513;-78
2023/09/12 06:32:43;;;;;;;32.92;19.13;;;;;;;23.79;50.37;101067.78;4967105;28;20058;-76
2023/09/12 06:35:10;;;;;;;37.92;18.95;;;;;;;23.79;50.59;101061.53;4942152;28;20141;-77
2023/09/12 06:37:43;;;;;;;64.38;21.60;;;;;;;23.88;50.58;101061.09;4916400;28;20042;-78
2023/09/12 06:40:13;;;;;;;39.85;17.63;;;;;;;24.04;50.30;101073.34;4943474;28;20062;-77
2023/09/12 06:42:42;;;;;;;30.88;17.35;;;;;;;23.32;50.46;100936.13;4943107;28;20050;-78
2023/09/12 06:45:11;;;;;;;28.10;16.25;;;;;;;24.12;50.34;101072.25;4949814;28;20445;-78
2023/09/12 06:47:38;;;;;;;30.17;17.23;;;;;;;24.17;50.10;101077.03;4948490;28;20465;-77
2023/09/12 06:50:08;;;;;;;24.92;17.85;;;;;;;23.80;49.52;101014.41;4953479;28;20108;-77
2023/09/12 06:52:41;;;;;;;24.65;17.13;;;;;;;24.23;49.85;101074.31;4966345;28;20049;-79
2023/09/12 06:55:08;;;;;;;28.52;17.27;;;;;;;24.30;50.14;101074.28;4940599;28;20498;-79
2023/09/12 06:57:39;;;;;;;23.75;15.68;;;;;;;24.32;49.23;101066.75;4952186;28;20236;-79
2023/09/12 07:00:07;;;;;;;30.77;16.52;;;;;;;24.32;50.10;101061.31;4949578;28;20050;-78
2023/09/12 07:02:35;;;;;;;26.73;15.88;;;;;;;24.35;50.33;101060.06;4934290;28;20134;-78
2023/09/12 07:05:03;;;;;;;28.48;15.73;;;;;;;24.46;49.43;101065.66;4932916;28;20489;-79
2023/09/12 07:07:30;;;;;;;32.17;16.23;;;;;;;24.50;48.80;101063.38;4937551;28;20369;-78
2023/09/12 07:09:57;;;;;;;44.90;16.58;;;;;;;24.69;48.47;101080.59;4941404;28;20051;-78
2023/09/12 07:12:42;;;;;;;24.70;15.43;;;;;;;24.72;48.42;101082.84;4949211;28;20069;-79
2023/09/12 07:15:12;;;;;;;33.35;15.65;;;;;;;24.85;48.02;101082.75;4936290;28;20447;-80
2023/09/12 07:17:44;;;;;;;26.67;16.40;;;;;;;24.97;47.02;101085.59;4931819;28;20047;-77
2023/09/12 07:20:11;;;;;;;30.70;15.52;;;;;;;25.05;46.40;101087.22;4908224;28;20074;-77
2023/09/12 07:22:40;;;;;;;25.95;15.65;;;;;;;25.06;46.55;101078.84;4932585;28;20054;-78
2023/09/12 07:25:11;;;;;;;26.73;15.13;;;;;;;25.14;46.28;101075.03;4923796;28;20153;-78
2023/09/12 07:27:45;;;;;;;25.50;15.13;;;;;;;25.34;45.65;101092.03;4935960;28;20090;-78
2023/09/12 07:30:14;;;;;;;19.48;14.68;;;;;;;25.26;45.86;101076.00;4919316;28;20047;-80
2023/09/12 07:32:44;;;;;;;23.63;14.35;;;;;;;25.37;46.76;101079.91;4937579;28;20046;-80
2023/09/12 07:35:11;;;;;;;21.73;14.07;;;;;;;25.50;45.75;101090.63;4929983;28;20700;-78
2023/09/12 07:37:38;;;;;;;21.38;14.15;;;;;;;25.62;45.09;101101.59;4944445;28;20047;-79
2023/09/12 07:40:09;;;;;;;22.40;14.10;;;;;;;25.70;44.56;101105.91;4929209;28;20065;-80
2023/09/12 07:42:36;;;;;;;19.75;14.32;;;;;;;25.77;45.10;101110.22;4945178;28;20538;-80
2023/09/12 07:45:03;;;;;;;18.55;13.65;;;;;;;25.89;44.47;101106.81;4924132;28;20396;-80
2023/09/12 07:47:33;;;;;;;18.90;14.30;;;;;;;26.04;41.69;101109.16;4939687;28;20579;-79
2023/09/12 07:50:04;;;;;;;23.90;13.32;;;;;;;25.86;44.37;101093.66;4939767;28;20443;-80
2023/09/12 07:52:30;;;;;;;18.37;13.63;;;;;;;25.93;43.39;101105.31;4936736;28;20039;-79
2023/09/12 07:55:02;;;;;;;19.17;13.40;;;;;;;25.96;42.82;101111.09;4935408;28;20513;-79
2023/09/12 07:57:30;;;;;;;19.58;12.50;;;;;;;25.63;44.61;101070.63;4948158;28;20462;-80
2023/09/12 07:59:57;;;;;;;19.00;13.95;;;;;;;25.89;45.63;101114.97;4912809;28;20489;-80
2023/09/12 08:02:24;;;;;;;19.95;13.50;;;;;;;25.63;45.41;101070.63;4916960;28;20069;-80
2023/09/12 08:04:51;;;;;;;17.23;13.10;;;;;;;25.98;42.57;101114.44;4924069;28;20050;-80
2023/09/12 08:07:22;;;;;;;26.10;13.77;;;;;;;25.98;42.59;101105.44;4924154;28;20410;-79
2023/09/12 08:09:50;;;;;;;19.70;13.32;;;;;;;25.97;42.55;101106.50;4936677;28;20822;-80
2023/09/12 08:12:19;;;;;;;20.70;13.10;;;;;;;25.98;42.92;101103.56;4931880;28;20134;-80
2023/09/12 08:14:46;;;;;;;26.65;14.48;;;;;;;26.12;43.50;101115.13;4940162;28;20121;-80
2023/09/12 08:17:14;;;;;;;21.42;13.10;;;;;;;26.11;44.91;101113.44;4934019;28;20081;-80
2023/09/12 08:19:41;;;;;;;23.00;13.63;;;;;;;26.16;42.92;101113.59;4933920;28;20058;-80
2023/09/12 08:22:11;;;;;;;23.35;13.50;;;;;;;25.34;44.84;100977.91;4934668;28;20561;-77
2023/09/12 08:24:39;;;;;;;25.33;13.15;;;;;;;26.31;42.83;101124.13;4930087;28;20056;-79
2023/09/12 08:27:06;;;;;;;22.30;13.18;;;;;;;26.25;43.42;101114.13;4930444;28;20346;-79
2023/09/12 08:29:34;;;;;;;22.83;15.10;;;;;;;26.28;42.69;101108.22;4928868;28;20046;-79
2023/09/12 08:32:02;;;;;;;19.33;13.65;;;;;;;26.29;42.35;101096.31;4933757;28;20050;-79
2023/09/12 08:34:29;;;;;;;27.60;14.38;;;;;;;26.34;42.27;101095.63;4924953;28;20089;-78
2023/09/12 08:36:56;;;;;;;22.92;13.80;;;;;;;26.40;44.12;101113.72;4932063;28;20046;-79
2023/09/12 08:39:29;;;;;;;21.10;13.82;;;;;;;26.43;45.06;101122.28;4926134;28;20082;-79
2023/09/12 08:42:00;;;;;;;33.13;13.95;;;;;;;26.42;44.94;101101.56;4921265;28;20051;-79
2023/09/12 08:44:26;;;;;;;22.20;13.70;;;;;;;26.43;44.93;101105.09;4917448;28;20491;-79
2023/09/12 08:46:53;;;;;;;21.30;13.30;;;;;;;26.49;43.94;101093.31;4941485;28;20055;-79
2023/09/12 08:49:20;;;;;;;18.63;13.98;;;;;;;26.56;43.00;101104.97;4939710;28;20406;-79
2023/09/12 08:51:49;;;;;;;28.05;14.40;;;;;;;26.57;43.92;101100.34;4915954;28;20047;-80
2023/09/12 08:54:16;;;;;;;24.27;15.35;;;;;;;26.63;42.30;101094.81;4935595;28;20049;-78
2023/09/12 08:56:44;;;;;;;28.10;14.77;;;;;;;26.64;43.25;101096.47;4919680;28;20322;-80
2023/09/12 08:59:12;;;;;;;24.88;15.60;;;;;;;26.64;42.50;101091.03;4931892;28;20043;-80
2023/09/12 09:01:39;;;;;;;30.10;14.77;;;;;;;26.63;43.92;101094.81;4936392;28;20106;-78
2023/09/12 09:04:09;;;;;;;22.63;14.35;;;;;;;26.57;43.73;101075.84;4958477;28;20510;-79
2023/09/12 09:06:37;;;;;;;23.42;15.98;;;;;;;26.84;43.29;101111.69;4954548;28;20054;-79
2023/09/12 09:09:06;;;;;;;21.92;15.10;;;;;;;26.97;44.63;101114.22;4952065;28;20050;-80
2023/09/12 09:11:34;;;;;;;25.52;15.07;;;;;;;26.88;43.34;101088.38;4955122;28;20060;-80
2023/09/12 09:14:04;;;;;;;29.20;15.38;;;;;;;27.02;43.36;101105.38;4981940;28;20343;-80
2023/09/12 09:16:31;;;;;;;26.02;15.90;;;;;;;26.76;43.43;101060.28;4951433;28;20058;-80
2023/09/12 09:19:09;;;;;;;18.63;14.73;;;;;;;27.06;44.76;101085.59;4964245;28;20096;-80
2023/09/12 09:21:42;;;;;;;19.63;13.95;;;;;;;26.93;45.27;101055.00;4964025;28;20154;-80
2023/09/12 09:24:15;;;;;;;17.60;14.50;;;;;;;27.30;44.74;101107.44;4936220;28;20054;-79
2023/09/12 09:26:50;;;;;;;22.83;15.60;;;;;;;27.27;43.62;101088.84;4951617;28;20108;-79
2023/09/12 09:29:17;;;;;;;20.45;14.70;;;;;;;27.50;44.79;101109.81;4955598;28;20317;-80
2023/09/12 09:31:51;;;;;;;23.60;15.82;;;;;;;27.64;42.62;101088.59;4944198;28;20066;-81
2023/09/12 09:34:21;;;;;;;19.42;14.30;;;;;;;27.74;42.57;101077.09;4955030;28;20382;-80
2023/09/12 09:36:57;;;;;;;21.98;14.40;;;;;;;27.83;43.27;101065.59;4962443;28;20132;-80
2023/09/12 09:39:35;;;;;;;21.98;15.35;;;;;;;27.99;43.77;101095.94;4952100;28;20054;-80
2023/09/12 09:42:02;;;;;;;31.27;16.92;;;;;;;28.04;42.94;101088.72;4960628;28;20117;-80
2023/09/12 09:44:33;;;;;;;20.67;14.38;;;;;;;28.00;43.05;101059.41;4974185;28;20053;-80
2023/09/12 09:47:03;;;;;;;25.38;16.35;;;;;;;27.99;41.69;101036.75;4980068;28;20054;-80
2023/09/12 09:49:34;;;;;;;26.48;15.07;;;;;;;28.36;42.42;101079.25;4942322;28;20054;-80
2023/09/12 09:52:04;;;;;;;23.38;15.73;;;;;;;28.42;42.03;101067.31;4946726;28;20326;-80
2023/09/12 09:54:33;;;;;;;21.43;13.37;;;;;;;28.20;42.88;101020.78;4942878;28;20510;-80
2023/09/12 09:57:04;;;;;;;18.08;13.57;;;;;;;28.58;43.23;101082.97;4964593;28;20465;-79
2023/09/12 09:59:39;;;;;;;19.35;13.82;;;;;;;28.54;42.76;101073.59;4945446;28;20064;-80
2023/09/12 10:02:23;;;;;;;21.15;14.57;;;;;;;28.55;42.76;101078.00;4939058;28;20121;-80
2023/09/12 10:04:53;;;;;;;20.60;14.65;;;;;;;28.51;41.48;101035.88;4967518;28;20466;-80
2023/09/12 10:07:24;;;;;;;18.42;14.40;;;;;;;28.83;42.47;101062.66;4953066;28;20130;-79
2023/09/12 10:09:53;;;;;;;28.42;14.93;;;;;;;28.71;41.40;101036.22;4949627;28;20051;-79
2023/09/12 10:12:21;;;;;;;21.30;14.27;;;;;;;28.77;42.37;101043.44;4972107;28;20054;-79
2023/09/12 10:14:53;;;;;;;25.55;15.95;;;;;;;29.04;39.32;101050.97;4962770;28;20053;-79
2023/09/12 10:17:31;;;;;;;18.98;13.82;;;;;;;28.81;43.19;101010.16;4955168;28;20381;-80
2023/09/12 10:20:12;;;;;;;23.08;15.15;;;;;;;29.35;40.64;101070.63;4953241;28;20050;-80
2023/09/12 10:23:11;;;;;;;21.10;15.85;;;;;;;29.42;40.63;101063.09;4953322;28;20513;-78
2023/09/12 10:25:38;;;;;;;;;;;;;;;29.74;39.52;101071.50;4943399;28;20528;-79
2023/09/12 10:28:06;;;;;;;26.20;15.15;;;;;;;29.80;39.27;101072.38;4973337;28;20277;-80
2023/09/12 10:30:37;;;;;;;17.35;13.73;;;;;;;30.00;39.78;101067.19;4928591;28;20564;-79
2023/09/12 10:33:08;;;;;;;16.90;14.35;;;;;;;29.71;40.57;101062.97;4965063;28;20085;-80
2023/09/12 10:35:40;;;;;;;17.02;13.43;;;;;;;29.44;41.62;101003.47;4967383;28;20056;-79
2023/09/12 10:38:10;;;;;;;16.70;14.02;;;;;;;29.79;40.98;101065.28;4959187;28;20136;-78
2023/09/12 10:40:40;;;;;;;24.92;15.32;;;;;;;29.84;40.59;101072.72;4962041;28;20226;-80
2023/09/12 10:43:14;;;;;;;28.05;16.45;;;;;;;29.58;39.99;101048.53;4951834;28;20129;-79
2023/09/12 10:45:43;;;;;;;22.67;14.43;;;;;;;29.80;40.59;101062.28;4948374;28;20049;-78
2023/09/12 10:48:11;;;;;;;22.63;15.55;;;;;;;29.75;41.48;101061.38;4946222;28;20405;-80
2023/09/12 10:50:42;;;;;;;26.80;16.13;;;;;;;29.80;39.87;101039.56;4949180;28;20547;-80
2023/09/12 10:53:13;;;;;;;19.00;14.65;;;;;;;29.74;38.54;100972.19;4954377;28;20624;-79
2023/09/12 10:55:41;;;;;;;26.27;16.00;;;;;;;30.33;38.90;101054.44;4966423;28;20041;-78
2023/09/12 10:58:12;;;;;;;20.25;15.23;;;;;;;30.48;38.96;101040.09;4940076;28;20057;-79
2023/09/12 11:01:26;;;;;;;20.65;15.50;;;;;;;30.67;39.57;101049.59;4961767;28;20057;-80
2023/09/12 11:03:53;;;;;;;18.92;14.95;;;;;;;30.23;38.98;101026.94;4948719;28;20331;-81
2023/09/12 11:06:29;;;;;;;19.73;15.25;;;;;;;30.07;38.07;100968.44;4957991;28;20275;-80
2023/09/12 11:09:31;;;;;;;22.92;15.05;;;;;;;30.65;39.08;101035.31;4968504;28;20449;-80
2023/09/12 11:12:08;;;;;;;22.80;15.43;;;;;;;30.71;36.77;101011.53;4921347;29;20467;-80
2023/09/12 11:15:10;;;;;;;19.63;15.10;;;;;;;30.83;37.58;101019.63;4911342;28;20142;-81
2023/09/12 11:17:39;;;;;;;25.45;16.77;;;;;;;30.99;38.07;101026.03;4920540;28;20243;-80
2023/09/12 11:20:10;;;;;;;24.23;15.40;;;;;;;31.01;36.09;101026.59;4936895;28;20307;-81
2023/09/12 11:23:00;;;;;;;19.13;14.93;;;;;;;30.52;38.33;100945.34;4960593;28;20082;-80